Time;durP1;ratioP1;P1;durP2;ratioP2;P2;SDS_P1;SDS_P2;PMS_P1;PMS_P2;Temp;Humidity;BMP_temperature;BMP_pressure;BME280_temperature;BME280_humidity;BME280_pressure;Samples;Min_cycle;Max_cycle;Signal;HPM_P1;HPM_P2
2022/06/14 00:01:16;;;;;;;;;;;10.10;99.90;;;;;;5072786;28;19912;-72
2022/06/14 00:03:43;;;;;;;;;;;10.10;99.90;;;;;;5072552;28;19909;-74
2022/06/14 00:06:16;;;;;;;;;;;10.00;99.90;;;;;;5072944;28;20358;-73
2022/06/14 00:08:42;;;;;;;;;;;9.90;99.90;;;;;;5072997;28;19908;-74
2022/06/14 00:11:21;;;;;;;;;;;9.90;99.90;;;;;;5072823;28;20331;-73
2022/06/14 00:13:47;;;;;;;;;;;9.90;99.90;;;;;;5072472;28;19912;-74
2022/06/14 00:16:13;;;;;;;;;;;9.80;99.90;;;;;;5072806;28;20366;-74
2022/06/14 00:18:38;;;;;;;;;;;9.80;99.90;;;;;;5072712;28;19912;-74
2022/06/14 00:21:04;;;;;;;;;;;9.80;99.90;;;;;;5072795;28;19924;-74
2022/06/14 00:23:30;;;;;;;;;;;9.80;99.90;;;;;;5071578;28;19912;-74
2022/06/14 00:25:57;;;;;;;;;;;9.70;99.90;;;;;;5073111;28;19908;-74
2022/06/14 00:28:23;;;;;;;;;;;9.80;99.90;;;;;;5083018;28;19969;-74
2022/06/14 00:30:51;;;;;;;;;;;9.70;99.90;;;;;;5075514;28;19908;-74
2022/06/14 00:33:17;;;;;;;;;;;9.70;99.90;;;;;;5071365;28;20278;-74
2022/06/14 00:35:43;;;;;;;;;;;9.60;99.90;;;;;;5072471;28;20007;-74
2022/06/14 00:38:12;;;;;;;;;;;9.60;99.90;;;;;;5072096;28;20019;-74
2022/06/14 00:40:38;;;;;;;;;;;9.50;99.90;;;;;;5072404;28;19923;-74
2022/06/14 00:43:11;;;;;;;;;;;9.50;99.90;;;;;;5072009;28;20016;-73
2022/06/14 00:45:37;;;;;;;;;;;9.40;99.90;;;;;;5071045;28;20007;-74
2022/06/14 00:48:04;;;;;;;;;;;9.40;99.90;;;;;;5072137;28;19959;-74
2022/06/14 00:50:37;;;;;;;;;;;9.40;99.90;;;;;;5070863;28;19944;-73
2022/06/14 00:53:09;;;;;;;;;;;9.30;99.90;;;;;;5070093;28;19916;-73
2022/06/14 00:55:37;;;;;;;;;;;9.50;99.90;;;;;;5074568;28;20365;-74
2022/06/14 00:58:23;;;;;;;;;;;9.50;99.90;;;;;;5076952;28;19966;-74
2022/06/14 01:00:51;;;;;;;;;;;9.50;99.90;;;;;;5071455;28;19909;-74
2022/06/14 01:03:19;;;;;;;;;;;9.50;99.90;;;;;;5083196;28;19913;-74
2022/06/14 01:06:06;;;;;;;;;;;9.40;99.90;;;;;;5070655;28;19915;-74
2022/06/14 01:08:37;;;;;;;;;;;9.30;99.90;;;;;;5086369;28;19916;-74
2022/06/14 01:11:04;;;;;;;;;;;9.40;99.90;;;;;;5091622;28;19908;-74
2022/06/14 01:13:29;;;;;;;;;;;9.30;99.90;;;;;;5090336;28;19908;-74
2022/06/14 01:15:55;;;;;;;;;;;9.20;99.90;;;;;;5091032;28;19908;-74
2022/06/14 01:18:23;;;;;;;;;;;9.10;99.90;;;;;;5089759;28;19912;-74
2022/06/14 01:20:48;;;;;;;;;;;9.10;99.90;;;;;;5089898;28;20435;-74
2022/06/14 01:23:16;;;;;;;;;;;9.20;99.90;;;;;;5090062;28;20014;-74
2022/06/14 01:25:51;;;;;;;;;;;9.20;99.90;;;;;;5087341;28;19908;-74
2022/06/14 01:28:17;;;;;;;;;;;9.10;99.90;;;;;;5082515;28;20374;-74
2022/06/14 01:30:45;;;;;;;;;;;9.10;99.90;;;;;;5071668;28;20301;-73
2022/06/14 01:33:17;;;;;;;;;;;9.20;99.90;;;;;;5070750;28;19908;-73
2022/06/14 01:35:44;;;;;;;;;;;9.30;99.90;;;;;;5071887;28;19908;-74
2022/06/14 01:38:11;;;;;;;;;;;9.30;99.90;;;;;;5070206;28;19916;-74
2022/06/14 01:40:57;;;;;;;;;;;9.20;99.90;;;;;;5071610;28;20327;-73
2022/06/14 01:43:38;;;;;;;;;;;9.20;99.90;;;;;;5070575;28;19909;-73
2022/06/14 01:46:06;;;;;;;;;;;9.10;99.90;;;;;;5084873;28;19920;-74
2022/06/14 01:48:42;;;;;;;;;;;9.00;99.90;;;;;;5090919;28;20445;-74
2022/06/14 01:54:07;;;;;;;;;;;8.90;99.90;;;;;;5090306;28;19950;-74
2022/06/14 01:56:46;;;;;;;;;;;8.80;99.90;;;;;;5079687;28;19908;-74
2022/06/14 01:59:36;;;;;;;;;;;8.80;99.90;;;;;;5079717;28;19998;-73
2022/06/14 02:02:07;;;;;;;;;;;8.80;99.90;;;;;;5070916;28;19963;-74
2022/06/14 02:04:40;;;;;;;;;;;8.80;99.90;;;;;;5070702;28;19908;-74
2022/06/14 02:07:24;;;;;;;;;;;8.90;99.90;;;;;;5071279;28;19915;-73
2022/06/14 02:09:50;;;;;;;;;;;8.80;99.90;;;;;;5084916;28;20365;-74
2022/06/14 02:12:17;;;;;;;;;;;8.70;99.90;;;;;;5090126;28;19962;-74
2022/06/14 02:14:49;;;;;;;;;;;8.60;99.90;;;;;;5088707;28;19931;-74
2022/06/14 02:17:22;;;;;;;;;;;8.70;99.90;;;;;;5090617;28;19914;-74
2022/06/14 02:19:57;;;;;;;;;;;8.60;99.90;;;;;;5090928;28;19912;-73
2022/06/14 02:22:25;;;;;;;;;;;8.50;99.90;;;;;;5089894;28;19969;-74
2022/06/14 02:24:56;;;;;;;;;;;8.40;99.90;;;;;;5089878;28;19954;-74
2022/06/14 02:27:24;;;;;;;;;;;8.40;99.90;;;;;;5079170;28;19908;-74
2022/06/14 02:29:52;;;;;;;;;;;8.40;99.90;;;;;;5071496;28;19934;-74
2022/06/14 02:32:18;;;;;;;;;;;8.40;99.90;;;;;;5070638;28;19955;-74
2022/06/14 02:34:46;;;;;;;;;;;8.40;99.90;;;;;;5070558;28;20236;-74
2022/06/14 02:37:18;;;;;;;;;;;8.40;99.90;;;;;;5073428;28;19920;-74
2022/06/14 02:39:49;;;;;;;;;;;8.40;99.90;;;;;;5074282;28;19912;-73
2022/06/14 02:42:14;;;;;;;;;;;8.30;99.90;;;;;;5074220;28;19995;-74
2022/06/14 02:44:44;;;;;;;;;;;8.30;99.90;;;;;;5073959;28;19991;-74
2022/06/14 02:47:14;;;;;;;;;;;8.30;99.90;;;;;;5079712;28;20315;-74
2022/06/14 02:49:45;;;;;;;;;;;8.30;99.90;;;;;;5093764;28;19934;-74
2022/06/14 02:52:17;;;;;;;;;;;8.10;99.90;;;;;;5093372;28;19970;-74
2022/06/14 02:54:45;;;;;;;;;;;8.10;99.90;;;;;;5092892;28;19941;-74
2022/06/14 02:57:19;;;;;;;;;;;8.20;99.90;;;;;;5088118;28;19963;-74
2022/06/14 02:59:48;;;;;;;;;;;8.20;99.90;;;;;;5077190;28;19913;-74
2022/06/14 03:02:17;;;;;;;;;;;8.20;99.90;;;;;;5073649;28;19909;-74
2022/06/14 03:04:52;;;;;;;;;;;8.20;99.90;;;;;;5073711;28;20114;-74
2022/06/14 03:07:24;;;;;;;;;;;8.10;99.90;;;;;;5074452;28;20294;-74
2022/06/14 03:09:49;;;;;;;;;;;8.10;99.90;;;;;;5073881;28;19908;-74
2022/06/14 03:12:33;;;;;;;;;;;8.10;99.90;;;;;;5073633;28;19916;-73
2022/06/14 03:15:02;;;;;;;;;;;8.10;99.90;;;;;;5072035;28;19908;-74
2022/06/14 03:17:46;;;;;;;;;;;8.00;99.90;;;;;;5074136;28;19915;-74
2022/06/14 03:20:18;;;;;;;;;;;8.00;99.90;;;;;;5072295;28;19981;-73
2022/06/14 03:22:52;;;;;;;;;;;8.00;99.90;;;;;;5072841;28;19916;-74
2022/06/14 03:25:24;;;;;;;;;;;8.00;99.90;;;;;;5073196;28;19909;-74
2022/06/14 03:28:02;;;;;;;;;;;7.90;99.90;;;;;;5076759;28;19962;-73
2022/06/14 03:30:27;;;;;;;;;;;7.80;99.90;;;;;;5080067;28;19916;-74
2022/06/14 03:32:59;;;;;;;;;;;7.80;99.90;;;;;;5073270;28;19909;-74
2022/06/14 03:35:30;;;;;;;;;;;7.90;99.90;;;;;;5072044;28;19912;-73
2022/06/14 03:37:57;;;;;;;;;;;7.90;99.90;;;;;;5073520;28;19908;-73
2022/06/14 03:40:23;;;;;;;;;;;7.90;99.90;;;;;;5077100;28;19908;-73
2022/06/14 03:42:49;;;;;;;;;;;8.00;99.90;;;;;;5078359;28;19915;-73
2022/06/14 03:45:16;;;;;;;;;;;8.00;99.90;;;;;;5094137;28;20418;-73
2022/06/14 03:47:42;;;;;;;;;;;8.00;99.90;;;;;;5093672;28;19908;-73
2022/06/14 03:50:09;;;;;;;;;;;8.00;99.90;;;;;;5094168;28;19909;-73
2022/06/14 03:52:51;;;;;;;;;;;8.00;99.90;;;;;;5094207;28;20007;-73
2022/06/14 03:55:32;;;;;;;;;;;8.10;99.90;;;;;;5092768;28;19966;-74
2022/06/14 03:58:10;;;;;;;;;;;8.20;99.90;;;;;;5081075;28;19959;-74
2022/06/14 04:00:57;;;;;;;;;;;8.40;99.90;;;;;;5073552;28;19913;-74
2022/06/14 04:03:28;;;;;;;;;;;8.60;99.90;;;;;;5079216;28;19909;-74
2022/06/14 04:05:54;;;;;;;;;;;8.80;99.90;;;;;;5074075;28;19909;-74
2022/06/14 04:08:19;;;;;;;;;;;9.00;99.90;;;;;;5073984;28;19916;-74
2022/06/14 04:10:48;;;;;;;;;;;9.00;99.90;;;;;;5074417;28;19948;-74
2022/06/14 04:13:20;;;;;;;;;;;9.00;99.90;;;;;;5072674;28;19955;-74
2022/06/14 04:15:55;;;;;;;;;;;9.10;99.90;;;;;;5073998;28;19947;-74
2022/06/14 04:18:47;;;;;;;;;;;9.20;99.90;;;;;;5087476;28;20442;-73
2022/06/14 04:21:22;;;;;;;;;;;9.20;99.90;;;;;;5069684;28;19912;-74
2022/06/14 04:24:06;;;;;;;;;;;9.30;99.90;;;;;;5092901;28;19908;-73
2022/06/14 04:26:37;;;;;;;;;;;9.40;99.90;;;;;;5089352;28;19916;-74
2022/06/14 04:29:02;;;;;;;;;;;9.60;99.90;;;;;;5081091;28;19908;-74
2022/06/14 04:31:35;;;;;;;;;;;9.70;99.90;;;;;;5072021;28;19999;-74
2022/06/14 04:34:19;;;;;;;;;;;9.80;99.90;;;;;;5072047;28;19966;-73
2022/06/14 04:36:54;;;;;;;;;;;9.90;99.90;;;;;;5072490;28;19908;-73
2022/06/14 04:39:25;;;;;;;;;;;10.00;99.90;;;;;;5072267;28;19912;-74
2022/06/14 04:41:59;;;;;;;;;;;10.20;99.90;;;;;;5071727;28;20362;-74
2022/06/14 04:44:24;;;;;;;;;;;10.30;99.90;;;;;;5071650;28;19921;-74
2022/06/14 04:46:57;;;;;;;;;;;10.30;99.90;;;;;;5077481;28;19909;-74
2022/06/14 04:49:30;;;;;;;;;;;10.30;99.90;;;;;;5072177;28;19909;-74
2022/06/14 04:51:59;;;;;;;;;;;10.40;99.90;;;;;;5071606;28;20012;-74
2022/06/14 04:54:33;;;;;;;;;;;10.50;99.90;;;;;;5071172;28;19977;-74
2022/06/14 04:56:58;;;;;;;;;;;10.50;99.90;;;;;;5074675;28;20353;-74
2022/06/14 04:59:29;;;;;;;;;;;10.80;99.90;;;;;;5081580;28;19919;-73
2022/06/14 05:02:00;;;;;;;;;;;10.70;99.90;;;;;;5071777;28;19915;-74
2022/06/14 05:04:29;;;;;;;;;;;10.70;99.90;;;;;;5071517;28;19909;-74
2022/06/14 05:06:57;;;;;;;;;;;10.80;99.90;;;;;;5071997;28;19912;-74
2022/06/14 05:09:24;;;;;;;;;;;10.80;99.90;;;;;;5072089;28;19913;-74
2022/06/14 05:11:57;;;;;;;;;;;10.80;99.90;;;;;;5071281;28;19912;-74
2022/06/14 05:14:37;;;;;;;;;;;11.00;99.90;;;;;;5071347;28;20365;-74
2022/06/14 05:17:12;;;;;;;;;;;11.10;99.90;;;;;;5071929;28;19908;-74
2022/06/14 05:19:45;;;;;;;;;;;11.20;99.90;;;;;;5072034;28;20007;-74
2022/06/14 05:22:14;;;;;;;;;;;11.20;99.90;;;;;;5071236;28;19917;-74
2022/06/14 05:24:39;;;;;;;;;;;11.30;99.90;;;;;;5069390;28;19983;-74
2022/06/14 05:27:23;;;;;;;;;;;11.40;99.90;;;;;;5081059;28;20311;-74
2022/06/14 05:29:49;;;;;;;;;;;11.40;99.90;;;;;;5072961;28;19908;-73
2022/06/14 05:32:35;;;;;;;;;;;11.60;99.90;;;;;;5079287;28;19912;-74
2022/06/14 05:35:09;;;;;;;;;;;11.80;99.90;;;;;;5077810;28;19908;-74
2022/06/14 05:37:52;;;;;;;;;;;11.90;99.90;;;;;;5090913;28;19915;-74
2022/06/14 05:40:22;;;;;;;;;;;12.00;99.90;;;;;;5090467;28;19912;-74
2022/06/14 05:42:53;;;;;;;;;;;12.20;99.90;;;;;;5090288;28;20345;-74
2022/06/14 05:45:21;;;;;;;;;;;12.40;99.90;;;;;;5090227;28;19916;-74
2022/06/14 05:47:49;;;;;;;;;;;12.50;99.90;;;;;;5090809;28;20097;-75
2022/06/14 05:50:18;;;;;;;;;;;12.80;99.90;;;;;;5090932;28;19960;-75
2022/06/14 05:52:45;;;;;;;;;;;13.60;99.90;;;;;;5090103;28;19908;-74
2022/06/14 05:55:13;;;;;;;;;;;14.70;99.90;;;;;;5089840;28;20516;-74
2022/06/14 05:57:43;;;;;;;;;;;15.50;99.90;;;;;;5090754;28;19996;-74
2022/06/14 06:00:11;;;;;;;;;;;16.30;99.90;;;;;;5088623;28;20512;-75
2022/06/14 06:02:46;;;;;;;;;;;16.80;99.90;;;;;;5082166;28;20031;-74
2022/06/14 06:05:16;;;;;;;;;;;16.60;99.90;;;;;;5069374;28;19919;-74
2022/06/14 06:07:45;;;;;;;;;;;17.00;99.90;;;;;;5074634;28;20418;-74
2022/06/14 06:10:19;;;;;;;;;;;17.00;99.90;;;;;;5074463;28;19922;-75
2022/06/14 06:13:14;;;;;;;;;;;17.00;99.90;;;;;;5074830;28;20007;-74
2022/06/14 06:15:43;;;;;;;;;;;17.30;99.20;;;;;;5076911;28;19908;-75
2022/06/14 06:18:11;;;;;;;;;;;17.40;99.90;;;;;;5094457;28;19934;-75
2022/06/14 06:20:43;;;;;;;;;;;17.00;99.40;;;;;;5094433;28;20003;-75
2022/06/14 06:23:14;;;;;;;;;;;17.30;99.90;;;;;;5093296;28;20288;-75
2022/06/14 06:25:44;;;;;;;;;;;17.00;99.90;;;;;;5094162;28;19998;-75
2022/06/14 06:28:12;;;;;;;;;;;16.30;99.90;;;;;;5094274;28;19914;-76
2022/06/14 06:30:40;;;;;;;;;;;17.00;99.90;;;;;;5087807;28;19917;-75
2022/06/14 06:33:10;;;;;;;;;;;17.90;98.60;;;;;;5077623;28;20356;-75
2022/06/14 06:35:41;;;;;;;;;;;18.50;98.50;;;;;;5076144;28;20289;-75
2022/06/14 06:38:06;;;;;;;;;;;18.40;98.80;;;;;;5074481;28;19999;-75
2022/06/14 06:40:32;;;;;;;;;;;18.70;98.00;;;;;;5092328;28;20023;-75
2022/06/14 06:42:58;;;;;;;;;;;19.40;97.10;;;;;;5093122;28;20072;-75
2022/06/14 06:45:31;;;;;;;;;;;19.30;96.30;;;;;;5093284;28;19954;-75
2022/06/14 06:47:59;;;;;;;;;;;19.50;96.10;;;;;;5093733;28;20393;-75
2022/06/14 06:50:25;;;;;;;;;;;20.10;95.40;;;;;;5093675;28;19908;-76
2022/06/14 06:52:57;;;;;;;;;;;20.00;95.60;;;;;;5093128;28;20036;-76
2022/06/14 06:55:34;;;;;;;;;;;19.90;94.90;;;;;;5079190;28;20105;-75
2022/06/14 06:58:01;;;;;;;;;;;19.40;92.80;;;;;;5085884;28;19982;-75
2022/06/14 07:00:28;;;;;;;;;;;20.00;94.90;;;;;;5078429;28;19919;-75
2022/06/14 07:02:58;;;;;;;;;;;19.80;92.70;;;;;;5077612;28;19912;-76
2022/06/14 07:05:24;;;;;;;;;;;20.00;93.70;;;;;;5075675;28;19916;-75
2022/06/14 07:08:25;;;;;;;;;;;20.00;92.80;;;;;;5084886;28;19909;-75
2022/06/14 07:10:52;;;;;;;;;;;20.30;92.70;;;;;;5023972;28;19909;-75
2022/06/14 07:13:18;;;;;;;;;;;21.20;92.40;;;;;;5071141;28;19915;-75
2022/06/14 07:15:59;;;;;;;;;;;21.40;91.40;;;;;;5075359;28;20011;-75
2022/06/14 07:18:27;;;;;;;;;;;21.50;90.20;;;;;;5086761;28;19920;-76
2022/06/14 07:20:57;;;;;;;;;;;21.70;86.80;;;;;;5073417;28;19915;-75
2022/06/14 07:23:28;;;;;;;;;;;21.30;89.70;;;;;;5071072;28;19909;-76
2022/06/14 07:26:20;;;;;;;;;;;21.00;90.80;;;;;;5081597;28;19962;-76
2022/06/14 07:28:50;;;;;;;;;;;21.80;87.70;;;;;;5050183;28;20003;-76
2022/06/14 07:31:29;;;;;;;;;;;22.10;89.50;;;;;;5074283;28;19908;-76
2022/06/14 07:33:55;;;;;;;;;;;22.30;85.90;;;;;;5093893;28;19909;-76
2022/06/14 07:36:41;;;;;;;;;;;22.70;86.90;;;;;;5073636;28;19916;-75
2022/06/14 07:39:10;;;;;;;;;;;22.50;90.00;;;;;;5085698;28;19916;-75
2022/06/14 07:41:38;;;;;;;;;;;22.80;85.80;;;;;;5092032;28;19915;-76
2022/06/14 07:44:27;;;;;;;;;;;22.50;86.10;;;;;;5092136;28;19974;-76
2022/06/14 07:47:11;;;;;;;;;;;22.40;84.60;;;;;;5092724;28;20002;-76
2022/06/14 07:49:58;;;;;;;;;;;22.80;83.70;;;;;;5091955;28;19908;-76
2022/06/14 07:52:24;;;;;;;;;;;23.10;82.90;;;;;;5072522;28;19927;-77
2022/06/14 07:54:52;;;;;;;;;;;23.20;82.10;;;;;;5072201;28;20369;-76
2022/06/14 07:57:20;;;;;;;;;;;23.80;86.70;;;;;;5073082;28;19928;-77
2022/06/14 08:02:54;;;;;;;;;;;23.80;80.00;;;;;;5078004;28;20392;-76
2022/06/14 08:05:21;;;;;;;;;;;23.70;80.80;;;;;;5076676;28;19998;-76
2022/06/14 08:07:48;;;;;;;;;;;23.40;77.80;;;;;;5069708;28;19919;-76
2022/06/14 08:10:19;;;;;;;;;;;23.20;80.00;;;;;;5076875;28;20149;-76
2022/06/14 08:12:51;;;;;;;;;;;24.00;78.30;;;;;;5085755;28;19916;-77
2022/06/14 08:15:24;;;;;;;;;;;24.30;83.00;;;;;;5072035;28;20347;-76
2022/06/14 08:17:53;;;;;;;;;;;25.10;77.10;;;;;;5071296;28;19909;-76
2022/06/14 08:20:18;;;;;;;;;;;25.10;75.00;;;;;;5071142;28;20286;-76
2022/06/14 08:22:46;;;;;;;;;;;25.30;73.50;;;;;;5071432;28;20214;-76
2022/06/14 08:25:20;;;;;;;;;;;24.90;76.40;;;;;;5072603;28;19916;-76
2022/06/14 08:28:06;;;;;;;;;;;25.70;74.60;;;;;;5076459;28;19908;-76
2022/06/14 08:30:50;;;;;;;;;;;25.60;73.70;;;;;;5079047;28;20282;-76
2022/06/14 08:33:22;;;;;;;;;;;25.20;78.50;;;;;;5084451;28;20288;-76
2022/06/14 08:35:47;;;;;;;;;;;25.10;70.90;;;;;;5085123;28;19957;-76
2022/06/14 08:38:15;;;;;;;;;;;25.50;76.90;;;;;;5091682;28;19908;-76
2022/06/14 08:40:41;;;;;;;;;;;25.30;71.10;;;;;;5091372;28;20311;-76
2022/06/14 08:43:14;;;;;;;;;;;25.50;76.80;;;;;;5090266;28;19912;-76
2022/06/14 08:45:53;;;;;;;;;;;26.70;79.70;;;;;;5091338;28;19995;-77
2022/06/14 08:48:37;;;;;;;;;;;26.50;69.50;;;;;;5091265;28;19964;-76
2022/06/14 08:51:09;;;;;;;;;;;25.90;68.30;;;;;;5091245;28;20003;-76
2022/06/14 08:53:47;;;;;;;;;;;24.70;73.60;;;;;;5089527;28;20369;-76
2022/06/14 08:56:32;;;;;;;;;;;25.30;69.10;;;;;;5090981;28;19951;-76
2022/06/14 08:59:12;;;;;;;;;;;26.40;66.70;;;;;;5090849;28;19919;-77
2022/06/14 09:01:38;;;;;;;;;;;26.60;72.30;;;;;;5077947;28;19913;-77
2022/06/14 09:04:03;;;;;;;;;;;26.60;66.10;;;;;;5096741;28;20319;-75
2022/06/14 09:06:45;;;;;;;;;;;25.10;68.40;;;;;;5076793;28;19963;-76
2022/06/14 09:09:11;;;;;;;;;;;25.70;71.20;;;;;;5070846;28;19944;-77
2022/06/14 09:12:07;;;;;;;;;;;26.60;77.70;;;;;;5090863;28;20065;-76
2022/06/14 09:14:36;;;;;;;;;;;26.50;70.90;;;;;;5082083;28;19951;-76
2022/06/14 09:17:27;;;;;;;;;;;25.90;73.90;;;;;;5085414;28;20350;-75
2022/06/14 09:20:15;;;;;;;;;;;26.30;71.80;;;;;;5057991;28;19912;-76
2022/06/14 09:23:10;;;;;;;;;;;26.80;72.40;;;;;;5077612;28;19923;-76
2022/06/14 09:25:35;;;;;;;;;;;26.90;70.50;;;;;;5026198;28;19924;-76
2022/06/14 09:28:09;;;;;;;;;;;25.70;66.00;;;;;;5076912;28;19917;-76
2022/06/14 09:30:41;;;;;;;;;;;25.80;72.20;;;;;;5077673;28;19915;-76
2022/06/14 09:33:26;;;;;;;;;;;25.90;66.80;;;;;;5071252;28;19919;-76
2022/06/14 09:36:11;;;;;;;;;;;26.50;73.10;;;;;;5070972;28;19995;-76
2022/06/14 09:38:55;;;;;;;;;;;26.20;65.10;;;;;;5085888;28;19923;-77
2022/06/14 09:41:37;;;;;;;;;;;27.20;73.70;;;;;;5090084;28;20369;-76
2022/06/14 09:44:20;;;;;;;;;;;27.30;65.50;;;;;;5089931;28;19909;-76
2022/06/14 09:46:57;;;;;;;;;;;27.40;68.60;;;;;;5097266;28;19955;-76
2022/06/14 09:49:35;;;;;;;;;;;27.30;73.40;;;;;;5097167;28;19998;-77
2022/06/14 09:52:13;;;;;;;;;;;27.70;64.60;;;;;;5096701;28;19908;-77
2022/06/14 09:54:47;;;;;;;;;;;27.80;69.40;;;;;;5096002;28;19908;-76
2022/06/14 09:57:31;;;;;;;;;;;26.90;64.10;;;;;;5099968;28;20460;-76
2022/06/14 09:59:56;;;;;;;;;;;27.30;65.00;;;;;;5102153;28;19916;-76
2022/06/14 10:02:30;;;;;;;;;;;26.50;61.30;;;;;;5085532;28;19915;-76
2022/06/14 10:05:11;;;;;;;;;;;26.60;63.80;;;;;;5079167;28;19941;-76
2022/06/14 10:07:56;;;;;;;;;;;26.90;64.80;;;;;;5076653;28;20332;-77
2022/06/14 10:10:32;;;;;;;;;;;26.20;67.00;;;;;;5083963;28;20002;-76
2022/06/14 10:13:16;;;;;;;;;;;27.60;72.80;;;;;;5083328;28;19908;-76
2022/06/14 10:15:52;;;;;;;;;;;28.00;69.70;;;;;;5094506;28;19908;-74
2022/06/14 10:18:30;;;;;;;;;;;27.40;70.70;;;;;;5078977;28;20018;-78
2022/06/14 10:21:15;;;;;;;;;;;28.10;68.40;;;;;;5097351;28;19908;-77
2022/06/14 10:23:58;;;;;;;;;;;27.60;61.60;;;;;;5088994;28;19930;-76
2022/06/14 10:29:26;;;;;;;;;;;27.20;64.90;;;;;;5097493;28;20388;-76
2022/06/14 10:31:54;;;;;;;;;;;27.20;66.00;;;;;;5083957;28;19913;-77
2022/06/14 10:34:22;;;;;;;;;;;27.30;63.30;;;;;;5085880;28;19919;-77
2022/06/14 10:36:50;;;;;;;;;;;26.90;63.00;;;;;;5077096;28;20220;-76
2022/06/14 10:39:34;;;;;;;;;;;27.80;65.00;;;;;;5079150;28;20439;-76
2022/06/14 10:42:02;;;;;;;;;;;26.90;59.10;;;;;;5096542;28;19947;-76
2022/06/14 10:44:40;;;;;;;;;;;26.70;58.60;;;;;;5094733;28;19912;-77
2022/06/14 10:47:11;;;;;;;;;;;27.80;63.10;;;;;;5095634;28;20002;-77
2022/06/14 10:49:57;;;;;;;;;;;27.80;62.00;;;;;;5095345;28;19974;-76
2022/06/14 10:52:39;;;;;;;;;;;28.10;61.50;;;;;;5075019;28;20350;-76
2022/06/14 10:55:22;;;;;;;;;;;27.20;64.70;;;;;;5095446;28;20301;-77
2022/06/14 10:57:50;;;;;;;;;;;28.00;58.60;;;;;;5092972;28;19908;-76
2022/06/14 11:00:22;;;;;;;;;;;27.10;58.70;;;;;;5081767;28;19913;-76
2022/06/14 11:02:58;;;;;;;;;;;27.50;67.70;;;;;;5085176;28;19991;-76
2022/06/14 11:05:31;;;;;;;;;;;26.20;58.20;;;;;;5071789;28;19913;-76
2022/06/14 11:08:23;;;;;;;;;;;27.20;65.30;;;;;;5082995;28;19919;-76
2022/06/14 11:10:54;;;;;;;;;;;27.60;62.30;;;;;;5083570;28;20058;-76
2022/06/14 11:13:32;;;;;;;;;;;26.60;58.80;;;;;;5080100;28;19909;-76
2022/06/14 11:16:03;;;;;;;;;;;26.80;59.70;;;;;;5073548;28;19970;-76
2022/06/14 11:18:29;;;;;;;;;;;27.70;66.20;;;;;;5073635;28;20361;-77
2022/06/14 11:21:04;;;;;;;;;;;27.90;60.70;;;;;;5072367;28;19908;-77
2022/06/14 11:23:39;;;;;;;;;;;27.40;63.70;;;;;;5072210;28;19908;-76
2022/06/14 11:26:10;;;;;;;;;;;26.40;65.70;;;;;;5084871;28;20371;-76
2022/06/14 11:28:41;;;;;;;;;;;26.40;64.10;;;;;;5093131;28;19919;-76
2022/06/14 11:31:18;;;;;;;;;;;28.20;60.40;;;;;;5090205;28;20283;-79
2022/06/14 11:33:54;;;;;;;;;;;28.40;53.60;;;;;;5086396;28;20293;-76
2022/06/14 11:36:52;;;;;;;;;;;27.80;62.70;;;;;;5086278;28;20372;-76
2022/06/14 11:39:18;;;;;;;;;;;28.40;56.20;;;;;;5046616;28;20324;-77
2022/06/14 11:41:45;;;;;;;;;;;26.90;52.80;;;;;;5092314;28;19908;-77
2022/06/14 11:44:19;;;;;;;;;;;26.30;54.40;;;;;;5092064;28;19908;-76
2022/06/14 11:46:45;;;;;;;;;;;27.20;61.50;;;;;;5092744;28;20280;-76
2022/06/14 11:49:19;;;;;;;;;;;27.90;54.80;;;;;;5092084;28;19908;-76
2022/06/14 11:51:48;;;;;;;;;;;27.80;57.80;;;;;;5092289;28;20365;-76
2022/06/14 11:54:19;;;;;;;;;;;27.30;54.10;;;;;;5090437;28;20361;-76
2022/06/14 11:56:50;;;;;;;;;;;27.40;62.30;;;;;;5092988;28;20300;-76
2022/06/14 11:59:24;;;;;;;;;;;27.60;59.20;;;;;;5092233;28;20369;-77
2022/06/14 12:01:50;;;;;;;;;;;27.80;56.80;;;;;;5076688;28;19908;-77
2022/06/14 12:04:15;;;;;;;;;;;28.40;57.70;;;;;;5081601;28;20285;-76
2022/06/14 12:06:48;;;;;;;;;;;28.70;58.50;;;;;;5071157;28;19915;-76
2022/06/14 12:09:31;;;;;;;;;;;27.40;53.10;;;;;;5071300;28;19916;-77
2022/06/14 12:12:06;;;;;;;;;;;27.10;56.80;;;;;;5078773;28;19913;-76
2022/06/14 12:14:50;;;;;;;;;;;27.40;60.00;;;;;;5079683;28;19915;-76
2022/06/14 12:17:20;;;;;;;;;;;27.70;57.40;;;;;;5078853;28;20504;-76
2022/06/14 12:19:49;;;;;;;;;;;27.60;59.50;;;;;;5071187;28;19966;-76
2022/06/14 12:22:33;;;;;;;;;;;27.70;52.00;;;;;;5072171;28;19916;-76
2022/06/14 12:27:51;;;;;;;;;;;27.90;58.20;;;;;;5078024;28;19916;-76
2022/06/14 12:30:16;;;;;;;;;;;29.30;56.60;;;;;;5073557;28;19923;-76
2022/06/14 12:32:47;;;;;;;;;;;30.40;51.60;;;;;;5081434;28;20366;-76
2022/06/14 12:35:15;;;;;;;;;;;31.50;52.00;;;;;;5072159;28;19913;-76
2022/06/14 12:38:01;;;;;;;;;;;31.90;47.00;;;;;;5092533;28;19987;-76
2022/06/14 12:40:35;;;;;;;;;;;32.70;49.50;;;;;;5091693;28;19923;-74
2022/06/14 12:43:03;;;;;;;;;;;33.20;43.70;;;;;;5091482;28;19962;-76
2022/06/14 12:45:31;;;;;;;;;;;32.80;45.80;;;;;;5090695;28;19939;-76
2022/06/14 12:48:12;;;;;;;;;;;33.90;46.80;;;;;;5091566;28;20563;-76
2022/06/14 12:50:43;;;;;;;;;;;34.10;47.60;;;;;;5091451;28;19912;-76
2022/06/14 12:53:14;;;;;;;;;;;33.60;40.30;;;;;;5090434;28;19991;-76
2022/06/14 12:55:43;;;;;;;;;;;34.30;42.50;;;;;;5089886;28;20045;-76
2022/06/14 12:58:20;;;;;;;;;;;33.90;42.50;;;;;;5091221;28;20004;-76
2022/06/14 13:00:46;;;;;;;;;;;33.80;43.30;;;;;;5084869;28;19912;-76
2022/06/14 13:03:11;;;;;;;;;;;33.10;43.20;;;;;;5084288;28;20284;-76
2022/06/14 13:05:40;;;;;;;;;;;34.70;39.90;;;;;;5071441;28;19919;-76
2022/06/14 13:08:05;;;;;;;;;;;35.10;44.20;;;;;;5071324;28;19916;-76
2022/06/14 13:10:36;;;;;;;;;;;34.80;39.80;;;;;;5087814;28;19908;-76
2022/06/14 13:13:21;;;;;;;;;;;33.40;38.40;;;;;;5086992;28;20006;-76
2022/06/14 13:15:55;;;;;;;;;;;32.10;43.10;;;;;;5071424;28;20120;-76
2022/06/14 13:18:23;;;;;;;;;;;32.90;46.20;;;;;;5072026;28;19916;-76
2022/06/14 13:21:08;;;;;;;;;;;34.10;42.40;;;;;;5070315;28;20003;-76
2022/06/14 13:23:53;;;;;;;;;;;34.00;43.40;;;;;;5077523;28;19908;-76
2022/06/14 13:26:19;;;;;;;;;;;34.00;39.70;;;;;;5085564;28;19912;-76
2022/06/14 13:29:11;;;;;;;;;;;32.90;43.40;;;;;;5071191;28;19916;-76
2022/06/14 13:32:02;;;;;;;;;;;34.50;46.80;;;;;;5059904;28;20296;-77
2022/06/14 13:34:43;;;;;;;;;;;34.10;39.20;;;;;;5071891;28;19915;-77
2022/06/14 13:37:17;;;;;;;;;;;34.90;38.40;;;;;;5070804;28;19909;-77
2022/06/14 13:39:49;;;;;;;;;;;34.00;43.20;;;;;;5070736;28;19977;-77
2022/06/14 13:42:17;;;;;;;;;;;33.80;44.30;;;;;;5070776;28;19908;-77
2022/06/14 13:45:02;;;;;;;;;;;34.30;44.40;;;;;;5070644;28;19909;-77
2022/06/14 13:47:28;;;;;;;;;;;33.60;44.40;;;;;;5085404;28;19908;-77
2022/06/14 13:50:20;;;;;;;;;;;33.90;44.80;;;;;;5090492;28;19908;-77
2022/06/14 13:53:04;;;;;;;;;;;34.20;43.60;;;;;;5087095;28;19908;-77
2022/06/14 13:55:44;;;;;;;;;;;33.20;42.70;;;;;;5090358;28;20357;-77
2022/06/14 13:58:29;;;;;;;;;;;33.50;43.50;;;;;;5071197;28;19912;-77
2022/06/14 14:01:04;;;;;;;;;;;33.30;44.80;;;;;;5075972;28;19986;-77
2022/06/14 14:03:30;;;;;;;;;;;33.80;43.90;;;;;;5080384;28;19908;-77
2022/06/14 14:05:55;;;;;;;;;;;34.70;43.60;;;;;;5070722;28;20031;-77
2022/06/14 14:08:39;;;;;;;;;;;33.40;43.30;;;;;;5070826;28;19909;-79
2022/06/14 14:11:09;;;;;;;;;;;33.30;45.70;;;;;;5079301;28;20175;-76
2022/06/14 14:13:42;;;;;;;;;;;31.60;43.50;;;;;;5071487;28;20377;-76
2022/06/14 14:16:10;;;;;;;;;;;31.60;48.50;;;;;;5071048;28;19927;-77
2022/06/14 14:18:47;;;;;;;;;;;32.80;43.90;;;;;;5070402;28;19909;-77
2022/06/14 14:21:19;;;;;;;;;;;33.30;45.10;;;;;;5070253;28;20388;-77
2022/06/14 14:24:08;;;;;;;;;;;32.70;48.00;;;;;;5072932;28;19940;-77
2022/06/14 14:26:36;;;;;;;;;;;33.10;46.00;;;;;;5056954;28;19996;-77
2022/06/14 14:29:07;;;;;;;;;;;31.80;44.70;;;;;;5070220;28;20412;-77
2022/06/14 14:31:39;;;;;;;;;;;33.40;44.70;;;;;;5071813;28;20376;-76
2022/06/14 14:34:04;;;;;;;;;;;32.90;45.60;;;;;;5089228;28;19948;-76
2022/06/14 14:37:09;;;;;;;;;;;33.10;43.60;;;;;;5074632;28;19924;-77
2022/06/14 14:39:37;;;;;;;;;;;33.10;47.20;;;;;;5030722;28;19963;-76
2022/06/14 14:42:05;;;;;;;;;;;32.70;46.20;;;;;;5030960;28;19993;-76
2022/06/14 14:44:30;;;;;;;;;;;32.80;45.70;;;;;;5052018;28;19908;-76
2022/06/14 14:47:07;;;;;;;;;;;32.00;49.40;;;;;;5074113;28;20003;-76
2022/06/14 14:50:02;;;;;;;;;;;31.00;51.50;;;;;;5086916;28;19909;-76
2022/06/14 14:52:42;;;;;;;;;;;30.10;52.00;;;;;;5053125;28;19909;-76
2022/06/14 14:55:25;;;;;;;;;;;27.60;53.30;;;;;;5092692;28;19908;-76
2022/06/14 14:57:56;;;;;;;;;;;26.90;55.50;;;;;;5093091;28;19969;-76
2022/06/14 15:06:10;;;;;;;;;;;25.80;56.20;;;;;;5074156;28;20404;-76
2022/06/14 15:08:35;;;;;;;;;;;26.10;58.80;;;;;;5073729;28;19908;-76
2022/06/14 15:11:06;;;;;;;;;;;26.30;58.10;;;;;;5078410;28;19908;-76
2022/06/14 15:13:32;;;;;;;;;;;26.80;60.70;;;;;;5082148;28;19919;-76